sensor_id;sensor_type;location;lat;lon;timestamp;temperature;humidity
14401;DHT22;7285;50.894;5.462;2022-10-16T00:00:47;13.50;99.90
14401;DHT22;7285;50.894;5.462;2022-10-16T00:03:14;13.50;99.90
14401;DHT22;7285;50.894;5.462;2022-10-16T00:05:42;13.50;99.90
14401;DHT22;7285;50.894;5.462;2022-10-16T00:08:11;13.40;99.90
14401;DHT22;7285;50.894;5.462;2022-10-16T00:10:39;13.40;78.20
14401;DHT22;7285;50.894;5.462;2022-10-16T00:13:08;13.40;1.00
14401;DHT22;7285;50.894;5.462;2022-10-16T00:15:35;13.40;1.00
14401;DHT22;7285;50.894;5.462;2022-10-16T00:18:03;13.40;73.90
14401;DHT22;7285;50.894;5.462;2022-10-16T00:20:30;13.40;54.70
14401;DHT22;7285;50.894;5.462;2022-10-16T00:22:59;13.40;1.00
14401;DHT22;7285;50.894;5.462;2022-10-16T00:25:26;13.30;52.40
14401;DHT22;7285;50.894;5.462;2022-10-16T00:27:53;13.40;1.00
14401;DHT22;7285;50.894;5.462;2022-10-16T00:30:22;13.30;1.00
14401;DHT22;7285;50.894;5.462;2022-10-16T00:32:49;13.40;1.00
14401;DHT22;7285;50.894;5.462;2022-10-16T00:35:16;13.30;1.00
14401;DHT22;7285;50.894;5.462;2022-10-16T00:37:43;13.30;1.00
14401;DHT22;7285;50.894;5.462;2022-10-16T00:40:10;13.20;1.00
14401;DHT22;7285;50.894;5.462;2022-10-16T00:42:37;13.20;1.00
14401;DHT22;7285;50.894;5.462;2022-10-16T00:45:06;13.20;1.00
14401;DHT22;7285;50.894;5.462;2022-10-16T00:47:37;13.20;1.00
14401;DHT22;7285;50.894;5.462;2022-10-16T00:50:09;13.20;1.00
14401;DHT22;7285;50.894;5.462;2022-10-16T00:52:40;13.20;1.00
14401;DHT22;7285;50.894;5.462;2022-10-16T00:55:09;13.20;1.00
14401;DHT22;7285;50.894;5.462;2022-10-16T00:57:36;13.20;1.00
14401;DHT22;7285;50.894;5.462;2022-10-16T01:00:05;13.20;1.00
14401;DHT22;7285;50.894;5.462;2022-10-16T01:02:34;13.20;1.00
14401;DHT22;7285;50.894;5.462;2022-10-16T01:05:02;13.20;1.00
14401;DHT22;7285;50.894;5.462;2022-10-16T01:07:36;13.10;1.00
14401;DHT22;7285;50.894;5.462;2022-10-16T01:10:10;13.10;1.00
14401;DHT22;7285;50.894;5.462;2022-10-16T01:12:46;13.10;1.00
14401;DHT22;7285;50.894;5.462;2022-10-16T01:15:18;13.10;1.00
14401;DHT22;7285;50.894;5.462;2022-10-16T01:17:55;13.20;1.00
14401;DHT22;7285;50.894;5.462;2022-10-16T01:20:27;13.10;1.00
14401;DHT22;7285;50.894;5.462;2022-10-16T01:23:12;13.10;1.00
14401;DHT22;7285;50.894;5.462;2022-10-16T01:25:59;13.00;1.00
14401;DHT22;7285;50.894;5.462;2022-10-16T01:28:36;13.00;1.00
14401;DHT22;7285;50.894;5.462;2022-10-16T01:31:05;12.90;1.00
14401;DHT22;7285;50.894;5.462;2022-10-16T01:33:37;13.00;1.00
14401;DHT22;7285;50.894;5.462;2022-10-16T01:36:09;12.90;1.00
14401;DHT22;7285;50.894;5.462;2022-10-16T01:38:38;12.90;89.30
14401;DHT22;7285;50.894;5.462;2022-10-16T01:41:09;12.90;99.90
14401;DHT22;7285;50.894;5.462;2022-10-16T01:43:41;12.90;99.90
14401;DHT22;7285;50.894;5.462;2022-10-16T01:46:10;12.90;99.90
14401;DHT22;7285;50.894;5.462;2022-10-16T01:48:39;12.90;99.90
14401;DHT22;7285;50.894;5.462;2022-10-16T01:51:10;12.90;99.90
14401;DHT22;7285;50.894;5.462;2022-10-16T01:53:39;12.90;99.90
14401;DHT22;7285;50.894;5.462;2022-10-16T01:56:10;12.90;1.00
14401;DHT22;7285;50.894;5.462;2022-10-16T01:58:42;12.90;1.00
14401;DHT22;7285;50.894;5.462;2022-10-16T02:01:13;12.90;1.00
14401;DHT22;7285;50.894;5.462;2022-10-16T02:03:42;12.90;1.00
14401;DHT22;7285;50.894;5.462;2022-10-16T02:06:10;12.90;1.00
14401;DHT22;7285;50.894;5.462;2022-10-16T02:08:38;12.90;15.30
14401;DHT22;7285;50.894;5.462;2022-10-16T02:11:10;13.00;1.00
14401;DHT22;7285;50.894;5.462;2022-10-16T02:13:41;12.90;1.00
14401;DHT22;7285;50.894;5.462;2022-10-16T02:16:11;12.90;1.00
14401;DHT22;7285;50.894;5.462;2022-10-16T02:18:40;12.90;1.00
14401;DHT22;7285;50.894;5.462;2022-10-16T02:21:12;13.00;1.00
14401;DHT22;7285;50.894;5.462;2022-10-16T02:23:45;12.90;1.00
14401;DHT22;7285;50.894;5.462;2022-10-16T02:26:19;12.90;53.40
14401;DHT22;7285;50.894;5.462;2022-10-16T02:28:54;13.00;99.90
14401;DHT22;7285;50.894;5.462;2022-10-16T02:31:26;13.00;99.90
14401;DHT22;7285;50.894;5.462;2022-10-16T02:33:55;13.00;60.30
14401;DHT22;7285;50.894;5.462;2022-10-16T02:36:25;13.10;1.00
14401;DHT22;7285;50.894;5.462;2022-10-16T02:38:52;13.00;1.00
14401;DHT22;7285;50.894;5.462;2022-10-16T02:41:21;13.00;20.60
14401;DHT22;7285;50.894;5.462;2022-10-16T02:43:49;13.00;97.00
14401;DHT22;7285;50.894;5.462;2022-10-16T02:46:17;13.00;99.90
14401;DHT22;7285;50.894;5.462;2022-10-16T02:48:45;13.00;99.90
14401;DHT22;7285;50.894;5.462;2022-10-16T02:51:11;13.00;99.90
14401;DHT22;7285;50.894;5.462;2022-10-16T02:53:38;13.00;99.90
14401;DHT22;7285;50.894;5.462;2022-10-16T02:56:06;13.00;99.90
14401;DHT22;7285;50.894;5.462;2022-10-16T02:58:33;13.00;99.90
14401;DHT22;7285;50.894;5.462;2022-10-16T03:01:00;13.00;99.90
14401;DHT22;7285;50.894;5.462;2022-10-16T03:03:28;13.00;99.90
14401;DHT22;7285;50.894;5.462;2022-10-16T03:05:55;13.00;1.00
14401;DHT22;7285;50.894;5.462;2022-10-16T03:08:22;12.90;1.00
14401;DHT22;7285;50.894;5.462;2022-10-16T03:10:51;12.90;1.00
14401;DHT22;7285;50.894;5.462;2022-10-16T03:13:18;12.90;1.00
14401;DHT22;7285;50.894;5.462;2022-10-16T03:15:47;12.90;1.00
14401;DHT22;7285;50.894;5.462;2022-10-16T03:18:14;12.90;1.00
14401;DHT22;7285;50.894;5.462;2022-10-16T03:20:43;12.90;1.00
14401;DHT22;7285;50.894;5.462;2022-10-16T03:23:10;12.80;1.00
14401;DHT22;7285;50.894;5.462;2022-10-16T03:25:38;12.90;1.00
14401;DHT22;7285;50.894;5.462;2022-10-16T03:28:05;12.80;1.00
14401;DHT22;7285;50.894;5.462;2022-10-16T03:30:32;12.80;1.00
14401;DHT22;7285;50.894;5.462;2022-10-16T03:32:58;12.70;1.00
14401;DHT22;7285;50.894;5.462;2022-10-16T03:35:25;12.70;99.90
14401;DHT22;7285;50.894;5.462;2022-10-16T03:37:54;12.80;99.90
14401;DHT22;7285;50.894;5.462;2022-10-16T03:40:21;12.70;99.90
14401;DHT22;7285;50.894;5.462;2022-10-16T03:42:48;12.70;1.00
14401;DHT22;7285;50.894;5.462;2022-10-16T03:45:15;12.70;1.00
14401;DHT22;7285;50.894;5.462;2022-10-16T03:47:42;12.70;1.00
14401;DHT22;7285;50.894;5.462;2022-10-16T03:50:09;12.70;1.00
14401;DHT22;7285;50.894;5.462;2022-10-16T03:52:36;12.70;1.00
14401;DHT22;7285;50.894;5.462;2022-10-16T03:55:06;12.70;1.00
14401;DHT22;7285;50.894;5.462;2022-10-16T03:57:33;12.60;1.00
14401;DHT22;7285;50.894;5.462;2022-10-16T04:00:00;12.60;1.00
14401;DHT22;7285;50.894;5.462;2022-10-16T04:02:27;12.70;99.90
14401;DHT22;7285;50.894;5.462;2022-10-16T04:04:54;12.70;49.30
14401;DHT22;7285;50.894;5.462;2022-10-16T04:07:21;12.70;1.00
14401;DHT22;7285;50.894;5.462;2022-10-16T04:09:47;12.70;1.00
14401;DHT22;7285;50.894;5.462;2022-10-16T04:12:16;12.70;15.50
14401;DHT22;7285;50.894;5.462;2022-10-16T04:14:43;12.60;1.00
14401;DHT22;7285;50.894;5.462;2022-10-16T04:17:10;12.60;99.90
14401;DHT22;7285;50.894;5.462;2022-10-16T04:19:37;12.60;99.90
14401;DHT22;7285;50.894;5.462;2022-10-16T04:22:04;12.60;99.90
14401;DHT22;7285;50.894;5.462;2022-10-16T04:24:31;12.50;99.90
14401;DHT22;7285;50.894;5.462;2022-10-16T04:26:58;12.50;1.00
14401;DHT22;7285;50.894;5.462;2022-10-16T04:29:26;12.50;1.00
14401;DHT22;7285;50.894;5.462;2022-10-16T04:31:53;12.50;43.70
14401;DHT22;7285;50.894;5.462;2022-10-16T04:34:20;12.50;99.90
14401;DHT22;7285;50.894;5.462;2022-10-16T04:36:47;12.50;99.90
14401;DHT22;7285;50.894;5.462;2022-10-16T04:39:15;12.60;1.00
14401;DHT22;7285;50.894;5.462;2022-10-16T04:41:42;12.50;1.00
14401;DHT22;7285;50.894;5.462;2022-10-16T04:44:09;12.50;1.00
14401;DHT22;7285;50.894;5.462;2022-10-16T04:46:37;12.50;1.00
14401;DHT22;7285;50.894;5.462;2022-10-16T04:49:04;12.60;1.00
14401;DHT22;7285;50.894;5.462;2022-10-16T04:51:31;12.60;99.90
14401;DHT22;7285;50.894;5.462;2022-10-16T04:53:58;12.60;72.30
14401;DHT22;7285;50.894;5.462;2022-10-16T04:56:25;12.60;99.90
14401;DHT22;7285;50.894;5.462;2022-10-16T04:58:52;12.60;99.90
14401;DHT22;7285;50.894;5.462;2022-10-16T05:01:19;12.70;99.90
14401;DHT22;7285;50.894;5.462;2022-10-16T05:03:47;12.70;99.90
14401;DHT22;7285;50.894;5.462;2022-10-16T05:06:14;12.70;99.90
14401;DHT22;7285;50.894;5.462;2022-10-16T05:08:41;12.70;99.90
14401;DHT22;7285;50.894;5.462;2022-10-16T05:11:08;12.70;73.10
14401;DHT22;7285;50.894;5.462;2022-10-16T05:13:35;12.60;99.90
14401;DHT22;7285;50.894;5.462;2022-10-16T05:16:02;12.60;99.90
14401;DHT22;7285;50.894;5.462;2022-10-16T05:18:29;12.70;99.90
14401;DHT22;7285;50.894;5.462;2022-10-16T05:20:57;12.70;99.90
14401;DHT22;7285;50.894;5.462;2022-10-16T05:23:24;12.70;1.00
14401;DHT22;7285;50.894;5.462;2022-10-16T05:25:55;12.70;99.90
14401;DHT22;7285;50.894;5.462;2022-10-16T05:28:25;12.70;99.90
14401;DHT22;7285;50.894;5.462;2022-10-16T05:30:53;12.60;1.00
14401;DHT22;7285;50.894;5.462;2022-10-16T05:33:22;12.60;1.00
14401;DHT22;7285;50.894;5.462;2022-10-16T05:35:50;12.60;1.00
14401;DHT22;7285;50.894;5.462;2022-10-16T05:38:18;12.60;1.00
14401;DHT22;7285;50.894;5.462;2022-10-16T05:40:51;12.60;1.00
14401;DHT22;7285;50.894;5.462;2022-10-16T05:43:18;12.60;38.30
14401;DHT22;7285;50.894;5.462;2022-10-16T05:45:45;12.60;99.90
14401;DHT22;7285;50.894;5.462;2022-10-16T05:48:19;12.70;1.00
14401;DHT22;7285;50.894;5.462;2022-10-16T05:50:46;12.70;99.90
14401;DHT22;7285;50.894;5.462;2022-10-16T05:53:13;12.70;99.90
14401;DHT22;7285;50.894;5.462;2022-10-16T05:55:41;12.70;99.90
14401;DHT22;7285;50.894;5.462;2022-10-16T05:58:08;12.70;1.00
14401;DHT22;7285;50.894;5.462;2022-10-16T06:00:35;12.70;1.00
14401;DHT22;7285;50.894;5.462;2022-10-16T06:03:02;12.80;1.00
14401;DHT22;7285;50.894;5.462;2022-10-16T06:05:30;12.80;99.90
14401;DHT22;7285;50.894;5.462;2022-10-16T06:07:57;12.90;99.90
14401;DHT22;7285;50.894;5.462;2022-10-16T06:10:24;12.90;1.00
14401;DHT22;7285;50.894;5.462;2022-10-16T06:12:52;13.00;1.00
14401;DHT22;7285;50.894;5.462;2022-10-16T06:15:19;12.90;1.00
14401;DHT22;7285;50.894;5.462;2022-10-16T06:17:46;12.90;1.00
14401;DHT22;7285;50.894;5.462;2022-10-16T06:20:13;12.90;1.00
14401;DHT22;7285;50.894;5.462;2022-10-16T06:22:40;12.90;1.00
14401;DHT22;7285;50.894;5.462;2022-10-16T06:25:07;12.90;1.00
14401;DHT22;7285;50.894;5.462;2022-10-16T06:27:34;12.90;99.90
14401;DHT22;7285;50.894;5.462;2022-10-16T06:30:03;12.90;99.90
14401;DHT22;7285;50.894;5.462;2022-10-16T06:32:30;12.80;99.90
14401;DHT22;7285;50.894;5.462;2022-10-16T06:34:57;12.80;99.90
14401;DHT22;7285;50.894;5.462;2022-10-16T06:37:24;12.90;99.90
14401;DHT22;7285;50.894;5.462;2022-10-16T06:39:51;12.80;99.90
14401;DHT22;7285;50.894;5.462;2022-10-16T06:42:19;12.80;99.90
14401;DHT22;7285;50.894;5.462;2022-10-16T06:44:46;12.80;99.90
14401;DHT22;7285;50.894;5.462;2022-10-16T06:47:14;12.90;1.00
14401;DHT22;7285;50.894;5.462;2022-10-16T06:49:41;12.80;1.00
14401;DHT22;7285;50.894;5.462;2022-10-16T06:52:08;12.80;1.00
14401;DHT22;7285;50.894;5.462;2022-10-16T06:54:35;12.70;1.00
14401;DHT22;7285;50.894;5.462;2022-10-16T06:57:02;12.70;1.00
14401;DHT22;7285;50.894;5.462;2022-10-16T06:59:29;12.70;2.40
14401;DHT22;7285;50.894;5.462;2022-10-16T07:01:56;12.70;99.90
14401;DHT22;7285;50.894;5.462;2022-10-16T07:04:24;12.70;99.90
14401;DHT22;7285;50.894;5.462;2022-10-16T07:06:51;12.70;1.00
14401;DHT22;7285;50.894;5.462;2022-10-16T07:09:18;12.80;1.00
14401;DHT22;7285;50.894;5.462;2022-10-16T07:11:45;13.00;1.00
14401;DHT22;7285;50.894;5.462;2022-10-16T07:14:16;13.10;1.00
14401;DHT22;7285;50.894;5.462;2022-10-16T07:16:43;13.30;1.00
14401;DHT22;7285;50.894;5.462;2022-10-16T07:19:11;13.40;99.90
14401;DHT22;7285;50.894;5.462;2022-10-16T07:21:41;13.50;1.00
14401;DHT22;7285;50.894;5.462;2022-10-16T07:24:12;13.60;1.00
14401;DHT22;7285;50.894;5.462;2022-10-16T07:26:41;13.70;1.00
14401;DHT22;7285;50.894;5.462;2022-10-16T07:29:12;13.80;1.00
14401;DHT22;7285;50.894;5.462;2022-10-16T07:31:40;13.90;99.90
14401;DHT22;7285;50.894;5.462;2022-10-16T07:34:11;14.00;1.00
14401;DHT22;7285;50.894;5.462;2022-10-16T07:36:40;14.00;1.00
14401;DHT22;7285;50.894;5.462;2022-10-16T07:39:08;14.10;99.90
14401;DHT22;7285;50.894;5.462;2022-10-16T07:41:35;14.20;1.00
14401;DHT22;7285;50.894;5.462;2022-10-16T07:44:03;14.40;1.00
14401;DHT22;7285;50.894;5.462;2022-10-16T07:46:30;14.40;1.00
14401;DHT22;7285;50.894;5.462;2022-10-16T07:48:59;14.50;99.90
14401;DHT22;7285;50.894;5.462;2022-10-16T07:51:27;14.70;99.90
14401;DHT22;7285;50.894;5.462;2022-10-16T07:53:55;14.80;1.00
14401;DHT22;7285;50.894;5.462;2022-10-16T07:56:22;14.90;1.00
14401;DHT22;7285;50.894;5.462;2022-10-16T07:58:50;15.00;99.90
14401;DHT22;7285;50.894;5.462;2022-10-16T08:01:24;15.10;99.90
14401;DHT22;7285;50.894;5.462;2022-10-16T08:06:53;15.30;1.00
14401;DHT22;7285;50.894;5.462;2022-10-16T08:09:42;15.40;99.90
14401;DHT22;7285;50.894;5.462;2022-10-16T08:12:45;15.50;1.00
14401;DHT22;7285;50.894;5.462;2022-10-16T08:15:42;15.60;99.90
14401;DHT22;7285;50.894;5.462;2022-10-16T08:21:32;15.70;35.60
14401;DHT22;7285;50.894;5.462;2022-10-16T08:24:01;15.90;99.90
14401;DHT22;7285;50.894;5.462;2022-10-16T08:26:33;16.00;1.00
14401;DHT22;7285;50.894;5.462;2022-10-16T08:29:00;16.00;1.00
14401;DHT22;7285;50.894;5.462;2022-10-16T08:31:27;16.10;1.00
14401;DHT22;7285;50.894;5.462;2022-10-16T08:33:57;16.10;1.00
14401;DHT22;7285;50.894;5.462;2022-10-16T08:36:24;16.20;1.00
14401;DHT22;7285;50.894;5.462;2022-10-16T08:38:52;16.30;99.90
14401;DHT22;7285;50.894;5.462;2022-10-16T08:48:08;16.50;99.90
14401;DHT22;7285;50.894;5.462;2022-10-16T08:50:39;16.70;99.90
14401;DHT22;7285;50.894;5.462;2022-10-16T08:53:22;16.70;1.00
14401;DHT22;7285;50.894;5.462;2022-10-16T08:59:18;17.00;1.00
14401;DHT22;7285;50.894;5.462;2022-10-16T09:02:01;17.00;1.00
14401;DHT22;7285;50.894;5.462;2022-10-16T09:07:41;17.20;1.00
14401;DHT22;7285;50.894;5.462;2022-10-16T09:10:27;17.30;1.00
14401;DHT22;7285;50.894;5.462;2022-10-16T09:13:23;17.40;1.00
14401;DHT22;7285;50.894;5.462;2022-10-16T09:19:25;17.50;1.00
14401;DHT22;7285;50.894;5.462;2022-10-16T09:22:09;17.50;1.00
14401;DHT22;7285;50.894;5.462;2022-10-16T09:24:38;17.50;1.00
14401;DHT22;7285;50.894;5.462;2022-10-16T09:27:08;17.60;1.00
14401;DHT22;7285;50.894;5.462;2022-10-16T09:29:47;17.70;1.00
14401;DHT22;7285;50.894;5.462;2022-10-16T09:32:18;17.80;1.00
14401;DHT22;7285;50.894;5.462;2022-10-16T09:34:55;17.90;1.00
14401;DHT22;7285;50.894;5.462;2022-10-16T09:37:25;18.10;1.00
14401;DHT22;7285;50.894;5.462;2022-10-16T09:40:00;18.20;1.00
14401;DHT22;7285;50.894;5.462;2022-10-16T09:42:36;18.40;1.00
14401;DHT22;7285;50.894;5.462;2022-10-16T09:45:23;18.40;99.90
14401;DHT22;7285;50.894;5.462;2022-10-16T09:48:01;18.50;99.90
14401;DHT22;7285;50.894;5.462;2022-10-16T09:50:36;18.60;99.90
14401;DHT22;7285;50.894;5.462;2022-10-16T09:53:05;18.60;99.90
14401;DHT22;7285;50.894;5.462;2022-10-16T09:55:34;18.40;99.90
14401;DHT22;7285;50.894;5.462;2022-10-16T09:58:01;18.60;99.90
14401;DHT22;7285;50.894;5.462;2022-10-16T10:00:27;18.70;99.90
14401;DHT22;7285;50.894;5.462;2022-10-16T10:02:55;18.90;99.90
14401;DHT22;7285;50.894;5.462;2022-10-16T10:05:50;19.00;99.90
14401;DHT22;7285;50.894;5.462;2022-10-16T10:08:22;18.80;99.90
14401;DHT22;7285;50.894;5.462;2022-10-16T10:11:07;19.10;99.90
14401;DHT22;7285;50.894;5.462;2022-10-16T10:17:26;19.60;99.90
14401;DHT22;7285;50.894;5.462;2022-10-16T10:23:21;20.10;99.90
14401;DHT22;7285;50.894;5.462;2022-10-16T10:25:52;20.30;99.90
14401;DHT22;7285;50.894;5.462;2022-10-16T10:28:29;20.30;99.90
14401;DHT22;7285;50.894;5.462;2022-10-16T10:31:11;20.50;99.90
14401;DHT22;7285;50.894;5.462;2022-10-16T10:33:45;20.30;99.90
14401;DHT22;7285;50.894;5.462;2022-10-16T10:36:28;20.60;99.90
14401;DHT22;7285;50.894;5.462;2022-10-16T10:38:59;20.90;99.90
14401;DHT22;7285;50.894;5.462;2022-10-16T10:41:56;21.10;99.90
14401;DHT22;7285;50.894;5.462;2022-10-16T10:44:39;21.00;92.00
14401;DHT22;7285;50.894;5.462;2022-10-16T10:47:17;20.50;94.80
14401;DHT22;7285;50.894;5.462;2022-10-16T10:50:00;20.60;99.90
14401;DHT22;7285;50.894;5.462;2022-10-16T10:52:38;20.80;99.90
14401;DHT22;7285;50.894;5.462;2022-10-16T10:55:19;20.90;99.90
14401;DHT22;7285;50.894;5.462;2022-10-16T10:58:03;21.10;70.40
14401;DHT22;7285;50.894;5.462;2022-10-16T11:00:42;21.20;86.30
14401;DHT22;7285;50.894;5.462;2022-10-16T11:03:30;20.90;95.60
14401;DHT22;7285;50.894;5.462;2022-10-16T11:05:59;20.30;99.90
14401;DHT22;7285;50.894;5.462;2022-10-16T11:08:33;20.70;99.90
14401;DHT22;7285;50.894;5.462;2022-10-16T11:11:04;21.50;95.70
14401;DHT22;7285;50.894;5.462;2022-10-16T11:13:36;21.20;54.30
14401;DHT22;7285;50.894;5.462;2022-10-16T11:16:14;21.20;99.90
14401;DHT22;7285;50.894;5.462;2022-10-16T11:18:48;20.70;35.90
14401;DHT22;7285;50.894;5.462;2022-10-16T11:21:19;20.20;53.70
14401;DHT22;7285;50.894;5.462;2022-10-16T11:23:53;20.40;83.60
14401;DHT22;7285;50.894;5.462;2022-10-16T11:26:26;21.10;61.90
14401;DHT22;7285;50.894;5.462;2022-10-16T11:28:55;21.30;1.00
14401;DHT22;7285;50.894;5.462;2022-10-16T11:31:29;21.30;23.30
14401;DHT22;7285;50.894;5.462;2022-10-16T11:34:02;20.90;24.20
14401;DHT22;7285;50.894;5.462;2022-10-16T11:36:35;20.50;13.80
14401;DHT22;7285;50.894;5.462;2022-10-16T11:39:11;20.90;54.60
14401;DHT22;7285;50.894;5.462;2022-10-16T11:41:47;21.80;36.40
14401;DHT22;7285;50.894;5.462;2022-10-16T11:44:34;22.30;1.00
14401;DHT22;7285;50.894;5.462;2022-10-16T11:47:12;22.20;1.00
14401;DHT22;7285;50.894;5.462;2022-10-16T11:49:42;21.90;1.00
14401;DHT22;7285;50.894;5.462;2022-10-16T11:52:15;21.20;1.00
14401;DHT22;7285;50.894;5.462;2022-10-16T11:54:49;21.00;1.00
14401;DHT22;7285;50.894;5.462;2022-10-16T11:57:20;20.80;1.00
14401;DHT22;7285;50.894;5.462;2022-10-16T11:59:51;20.80;1.60
14401;DHT22;7285;50.894;5.462;2022-10-16T12:02:48;21.20;1.00
14401;DHT22;7285;50.894;5.462;2022-10-16T12:05:25;21.70;1.00
14401;DHT22;7285;50.894;5.462;2022-10-16T12:08:05;22.00;1.00
14401;DHT22;7285;50.894;5.462;2022-10-16T12:10:34;21.40;1.00
14401;DHT22;7285;50.894;5.462;2022-10-16T12:13:03;21.00;1.00
14401;DHT22;7285;50.894;5.462;2022-10-16T12:15:31;20.80;1.00
14401;DHT22;7285;50.894;5.462;2022-10-16T12:18:00;20.90;1.00
14401;DHT22;7285;50.894;5.462;2022-10-16T12:20:29;21.20;1.00
14401;DHT22;7285;50.894;5.462;2022-10-16T12:23:00;21.70;1.00
14401;DHT22;7285;50.894;5.462;2022-10-16T12:25:30;22.30;1.00
14401;DHT22;7285;50.894;5.462;2022-10-16T12:28:00;22.50;1.00
14401;DHT22;7285;50.894;5.462;2022-10-16T12:30:30;22.50;1.00
14401;DHT22;7285;50.894;5.462;2022-10-16T12:33:00;22.30;1.00
14401;DHT22;7285;50.894;5.462;2022-10-16T12:35:30;22.40;1.00
14401;DHT22;7285;50.894;5.462;2022-10-16T12:38:07;22.10;1.00
14401;DHT22;7285;50.894;5.462;2022-10-16T12:40:37;22.30;1.00
14401;DHT22;7285;50.894;5.462;2022-10-16T12:43:27;22.50;1.00
14401;DHT22;7285;50.894;5.462;2022-10-16T12:46:03;22.70;1.00
14401;DHT22;7285;50.894;5.462;2022-10-16T12:48:32;23.30;1.00
14401;DHT22;7285;50.894;5.462;2022-10-16T12:51:10;22.90;1.00
14401;DHT22;7285;50.894;5.462;2022-10-16T12:53:36;22.20;1.00
14401;DHT22;7285;50.894;5.462;2022-10-16T12:56:11;21.70;1.00
14401;DHT22;7285;50.894;5.462;2022-10-16T12:59:01;21.50;1.00
14401;DHT22;7285;50.894;5.462;2022-10-16T13:01:42;21.20;1.00
14401;DHT22;7285;50.894;5.462;2022-10-16T13:04:33;20.90;1.00
14401;DHT22;7285;50.894;5.462;2022-10-16T13:07:15;20.70;1.00
14401;DHT22;7285;50.894;5.462;2022-10-16T13:09:58;20.50;1.00
14401;DHT22;7285;50.894;5.462;2022-10-16T13:12:52;20.20;1.00
14401;DHT22;7285;50.894;5.462;2022-10-16T13:15:39;20.00;1.00
14401;DHT22;7285;50.894;5.462;2022-10-16T13:18:13;20.00;1.00
14401;DHT22;7285;50.894;5.462;2022-10-16T13:21:07;19.90;1.00
14401;DHT22;7285;50.894;5.462;2022-10-16T13:23:44;20.00;1.00
14401;DHT22;7285;50.894;5.462;2022-10-16T13:26:22;20.10;1.00
14401;DHT22;7285;50.894;5.462;2022-10-16T13:28:50;20.00;1.00
14401;DHT22;7285;50.894;5.462;2022-10-16T13:31:19;20.00;1.00
14401;DHT22;7285;50.894;5.462;2022-10-16T13:33:50;20.20;1.00
14401;DHT22;7285;50.894;5.462;2022-10-16T13:36:23;20.20;1.00
14401;DHT22;7285;50.894;5.462;2022-10-16T13:39:02;20.20;1.00
14401;DHT22;7285;50.894;5.462;2022-10-16T13:41:33;20.10;1.00
14401;DHT22;7285;50.894;5.462;2022-10-16T13:44:00;20.00;1.00
14401;DHT22;7285;50.894;5.462;2022-10-16T13:46:27;20.00;1.00
14401;DHT22;7285;50.894;5.462;2022-10-16T13:48:59;19.80;1.00
14401;DHT22;7285;50.894;5.462;2022-10-16T13:51:28;19.80;1.00
14401;DHT22;7285;50.894;5.462;2022-10-16T13:53:56;19.70;1.00
14401;DHT22;7285;50.894;5.462;2022-10-16T13:56:26;19.60;1.00
14401;DHT22;7285;50.894;5.462;2022-10-16T13:59:00;19.50;1.00
14401;DHT22;7285;50.894;5.462;2022-10-16T14:01:29;19.40;1.00
14401;DHT22;7285;50.894;5.462;2022-10-16T14:04:02;19.40;1.00
14401;DHT22;7285;50.894;5.462;2022-10-16T14:06:32;19.40;10.90
14401;DHT22;7285;50.894;5.462;2022-10-16T14:09:02;19.30;9.40
14401;DHT22;7285;50.894;5.462;2022-10-16T14:11:31;19.30;1.00
14401;DHT22;7285;50.894;5.462;2022-10-16T14:13:59;19.30;3.70
14401;DHT22;7285;50.894;5.462;2022-10-16T14:16:29;19.30;18.40
14401;DHT22;7285;50.894;5.462;2022-10-16T14:18:59;19.30;23.40
14401;DHT22;7285;50.894;5.462;2022-10-16T14:21:26;19.20;21.20
14401;DHT22;7285;50.894;5.462;2022-10-16T14:23:55;19.10;31.90
14401;DHT22;7285;50.894;5.462;2022-10-16T14:26:26;19.10;37.40
14401;DHT22;7285;50.894;5.462;2022-10-16T14:29:11;19.00;54.40
14401;DHT22;7285;50.894;5.462;2022-10-16T14:31:38;19.00;58.70
14401;DHT22;7285;50.894;5.462;2022-10-16T14:34:23;19.00;99.90
14401;DHT22;7285;50.894;5.462;2022-10-16T14:36:53;18.90;84.30
14401;DHT22;7285;50.894;5.462;2022-10-16T14:39:22;18.90;49.70
14401;DHT22;7285;50.894;5.462;2022-10-16T14:41:51;18.90;22.30
14401;DHT22;7285;50.894;5.462;2022-10-16T14:44:19;18.90;54.60
14401;DHT22;7285;50.894;5.462;2022-10-16T14:46:48;18.80;32.00
14401;DHT22;7285;50.894;5.462;2022-10-16T14:49:17;18.80;77.80
14401;DHT22;7285;50.894;5.462;2022-10-16T14:51:46;18.80;91.90
14401;DHT22;7285;50.894;5.462;2022-10-16T14:54:14;18.80;99.90
14401;DHT22;7285;50.894;5.462;2022-10-16T14:56:54;18.80;90.30
14401;DHT22;7285;50.894;5.462;2022-10-16T14:59:26;18.80;99.90
14401;DHT22;7285;50.894;5.462;2022-10-16T15:01:54;18.70;99.90
14401;DHT22;7285;50.894;5.462;2022-10-16T15:04:21;18.70;86.60
14401;DHT22;7285;50.894;5.462;2022-10-16T15:06:48;18.70;99.90
14401;DHT22;7285;50.894;5.462;2022-10-16T15:09:15;18.60;99.90
14401;DHT22;7285;50.894;5.462;2022-10-16T15:11:42;18.60;99.90
14401;DHT22;7285;50.894;5.462;2022-10-16T15:14:12;18.60;99.90
14401;DHT22;7285;50.894;5.462;2022-10-16T15:16:39;18.50;99.90
14401;DHT22;7285;50.894;5.462;2022-10-16T15:19:06;18.50;99.90
14401;DHT22;7285;50.894;5.462;2022-10-16T15:21:32;18.40;99.90
14401;DHT22;7285;50.894;5.462;2022-10-16T15:24:00;18.40;99.90
14401;DHT22;7285;50.894;5.462;2022-10-16T15:26:28;18.40;99.90
14401;DHT22;7285;50.894;5.462;2022-10-16T15:28:56;18.40;99.90
14401;DHT22;7285;50.894;5.462;2022-10-16T15:31:25;18.40;99.90
14401;DHT22;7285;50.894;5.462;2022-10-16T15:33:52;18.40;99.90
14401;DHT22;7285;50.894;5.462;2022-10-16T15:36:27;18.30;99.90
14401;DHT22;7285;50.894;5.462;2022-10-16T15:38:54;18.30;99.90
14401;DHT22;7285;50.894;5.462;2022-10-16T15:41:21;18.30;99.90
14401;DHT22;7285;50.894;5.462;2022-10-16T15:43:49;18.30;99.90
14401;DHT22;7285;50.894;5.462;2022-10-16T15:46:18;18.20;99.90
14401;DHT22;7285;50.894;5.462;2022-10-16T15:48:47;18.20;99.90
14401;DHT22;7285;50.894;5.462;2022-10-16T15:51:15;18.10;99.90
14401;DHT22;7285;50.894;5.462;2022-10-16T15:53:42;18.20;99.90
14401;DHT22;7285;50.894;5.462;2022-10-16T15:56:13;18.10;99.90
14401;DHT22;7285;50.894;5.462;2022-10-16T15:58:40;18.00;99.90
14401;DHT22;7285;50.894;5.462;2022-10-16T16:01:07;18.00;99.90
14401;DHT22;7285;50.894;5.462;2022-10-16T16:03:36;17.90;99.90
14401;DHT22;7285;50.894;5.462;2022-10-16T16:06:07;17.90;99.90
14401;DHT22;7285;50.894;5.462;2022-10-16T16:08:34;17.80;99.90
14401;DHT22;7285;50.894;5.462;2022-10-16T16:11:03;17.80;99.90
14401;DHT22;7285;50.894;5.462;2022-10-16T16:13:31;17.70;99.90
14401;DHT22;7285;50.894;5.462;2022-10-16T16:15:58;17.70;99.90
14401;DHT22;7285;50.894;5.462;2022-10-16T16:18:25;17.60;99.90
14401;DHT22;7285;50.894;5.462;2022-10-16T16:20:54;17.60;1.00
14401;DHT22;7285;50.894;5.462;2022-10-16T16:23:22;17.50;1.00
14401;DHT22;7285;50.894;5.462;2022-10-16T16:26:06;17.40;1.00
14401;DHT22;7285;50.894;5.462;2022-10-16T16:28:35;17.40;1.00
14401;DHT22;7285;50.894;5.462;2022-10-16T16:31:02;17.40;1.00
14401;DHT22;7285;50.894;5.462;2022-10-16T16:33:29;17.40;1.00
14401;DHT22;7285;50.894;5.462;2022-10-16T16:35:57;17.30;1.00
14401;DHT22;7285;50.894;5.462;2022-10-16T16:38:26;17.30;1.00
14401;DHT22;7285;50.894;5.462;2022-10-16T16:40:53;17.20;1.00
14401;DHT22;7285;50.894;5.462;2022-10-16T16:43:23;17.20;1.00
14401;DHT22;7285;50.894;5.462;2022-10-16T16:45:50;17.10;1.00
14401;DHT22;7285;50.894;5.462;2022-10-16T16:48:16;17.10;1.00